Fecha, hora, temperatura, viento dirección y velocidad, humedad y presión.

  • 19-03-2019 23:00:00 | 8.10°C | Nordeste |10.00 km/h | 48.00% | 958.30 hPa
  • 19-03-2019 22:00:00 | 9.30°C | Norte |13.00 km/h | 44.00% | 957.60 hPa
  • 19-03-2019 21:00:00 | 10.60°C | Norte |20.00 km/h | 43.00% | 956.80 hPa
  • 19-03-2019 20:00:00 | 11.90°C | Norte |15.00 km/h | 39.00% | 956.10 hPa
  • 19-03-2019 19:00:00 | 14.30°C | Norte |23.00 km/h | 35.00% | 955.30 hPa
  • 19-03-2019 18:00:00 | 16.00°C | Norte |22.00 km/h | 28.00% | 954.60 hPa
  • 19-03-2019 17:00:00 | 15.20°C | Norte |22.00 km/h | 29.00% | 954.50 hPa
  • 19-03-2019 16:00:00 | 16.30°C | Norte |19.00 km/h | 29.00% | 954.60 hPa
  • 19-03-2019 15:00:00 | 16.70°C | Norte |20.00 km/h | 28.00% | 954.90 hPa
  • 19-03-2019 14:00:00 | 15.40°C | Norte |19.00 km/h | 31.00% | 955.30 hPa
  • 19-03-2019 13:00:00 | 15.80°C | Norte |24.00 km/h | 32.00% | 955.90 hPa
  • 19-03-2019 12:00:00 | 14.70°C | Norte |13.00 km/h | 36.00% | 956.10 hPa
  • 19-03-2019 11:00:00 | 12.40°C | Norte |16.00 km/h | 39.00% | 956.60 hPa
  • 19-03-2019 10:00:00 | 11.20°C | Norte |11.00 km/h | 44.00% | 956.60 hPa
  • 19-03-2019 09:00:00 | 9.40°C | Norte |5.00 km/h | 48.00% | 956.60 hPa
  • 19-03-2019 08:00:00 | 6.70°C | Calma |0.00 km/h | 52.00% | 956.50 hPa
  • 19-03-2019 07:00:00 | 7.10°C | Norte |4.00 km/h | 50.00% | 956.50 hPa
  • 19-03-2019 06:00:00 | 7.00°C | Norte |8.00 km/h | 50.00% | 956.50 hPa
  • 19-03-2019 05:00:00 | 6.60°C | Nordeste |9.00 km/h | 52.00% | 956.30 hPa
  • 19-03-2019 04:00:00 | 6.40°C | Nordeste |9.00 km/h | 53.00% | 956.40 hPa
  • 19-03-2019 03:00:00 | 6.10°C | Nordeste |8.00 km/h | 54.00% | 956.90 hPa
  • 19-03-2019 02:00:00 | 6.40°C | Norte |4.00 km/h | 52.00% | 957.00 hPa
  • 19-03-2019 01:00:00 | 6.90°C | Norte |4.00 km/h | 50.00% | 957.00 hPa
  • 19-03-2019 00:00:00 | 7.60°C | Nordeste |9.00 km/h | 45.00% | 956.90 hPa
    • diseño web asturias Información sobre el estado de las mareas, altura de la marejada, temperatura del agua y otros datos de Gijón en Asturias.

      Surf Gijón